createdAt,value
2023-09-13T00:00:00.654Z,5746.9
2023-09-13T00:05:01.048Z,5753.4
2023-09-13T00:10:00.713Z,5754.3
2023-09-13T00:15:00.716Z,5739.4
2023-09-13T00:20:00.672Z,5725.0
2023-09-13T00:25:00.662Z,5726.1
2023-09-13T00:30:00.660Z,5727.5
2023-09-13T00:35:00.572Z,5732.0
2023-09-13T00:40:00.966Z,5728.2
2023-09-13T00:45:00.562Z,5713.4
2023-09-13T00:50:01.525Z,5712.0
2023-09-13T00:55:02.205Z,5708.3
2023-09-13T01:00:01.602Z,5723.1
2023-09-13T01:05:00.763Z,5724.4
2023-09-13T01:10:01.400Z,5738.3
2023-09-13T01:15:02.304Z,5738.4
2023-09-13T01:20:06.581Z,5725.0
2023-09-13T01:25:18.638Z,5721.6
2023-09-13T01:30:01.369Z,5730.1
2023-09-13T01:35:00.625Z,5729.9
2023-09-13T01:40:00.950Z,5728.8
2023-09-13T01:45:00.881Z,5727.4
2023-09-13T01:50:01.218Z,5723.0
2023-09-13T01:55:04.534Z,5727.4
2023-09-13T02:00:00.669Z,5733.5
2023-09-13T02:05:00.686Z,5734.6
2023-09-13T02:10:00.891Z,5736.1
2023-09-13T02:15:00.569Z,5733.6
2023-09-13T02:20:00.837Z,5743.5
2023-09-13T02:25:00.663Z,5724.7
2023-09-13T02:30:02.080Z,5744.5
2023-09-13T02:35:01.477Z,5751.6
2023-09-13T02:40:00.872Z,5758.0
2023-09-13T02:45:00.579Z,5760.5
2023-09-13T02:50:01.157Z,5751.9
2023-09-13T02:55:01.590Z,5747.7
2023-09-13T03:00:00.896Z,5743.4
2023-09-13T03:05:00.924Z,5738.4
2023-09-13T03:10:00.794Z,5735.7
2023-09-13T03:15:00.641Z,5738.4
2023-09-13T03:20:00.817Z,5732.2
2023-09-13T03:25:00.598Z,5740.7
2023-09-13T03:30:00.652Z,5749.0
2023-09-13T03:35:00.537Z,5756.4
2023-09-13T03:40:00.695Z,5755.6
2023-09-13T03:45:00.553Z,5755.4
2023-09-13T03:50:00.675Z,5753.3
2023-09-13T03:55:00.822Z,5747.1
2023-09-13T04:00:00.619Z,5752.3
2023-09-13T04:05:00.710Z,5758.6
2023-09-13T04:10:00.673Z,5764.9
2023-09-13T04:15:00.652Z,5756.8
2023-09-13T04:20:00.750Z,5759.8
2023-09-13T04:25:00.607Z,5760.1
2023-09-13T04:30:00.720Z,5771.3
2023-09-13T04:35:00.552Z,5766.4
2023-09-13T04:40:01.400Z,5765.8
2023-09-13T04:45:00.597Z,5765.9
2023-09-13T04:50:00.756Z,5762.2
2023-09-13T04:55:00.981Z,5751.3
2023-09-13T05:00:00.642Z,5744.9
2023-09-13T05:05:00.619Z,5745.9
2023-09-13T05:10:00.720Z,5756.4
2023-09-13T05:15:00.568Z,5751.4
2023-09-13T05:20:00.872Z,5757.7
2023-09-13T05:25:00.573Z,5777.6
2023-09-13T05:30:00.794Z,5786.7
2023-09-13T05:35:00.824Z,5788.5
2023-09-13T05:40:00.840Z,5807.1
2023-09-13T05:45:00.950Z,5814.8
2023-09-13T05:50:00.626Z,5825.7
2023-09-13T05:55:00.700Z,5810.3
2023-09-13T06:00:00.990Z,5814.5
2023-09-13T06:05:01.017Z,5819.4
2023-09-13T06:10:00.666Z,5837.8
2023-09-13T06:15:00.596Z,5841.1
2023-09-13T06:20:00.646Z,5832.9
2023-09-13T06:25:02.520Z,5825.5
2023-09-13T06:30:00.664Z,5837.4
2023-09-13T06:35:00.947Z,5837.4
2023-09-13T06:40:01.160Z,5829.2
2023-09-13T06:45:20.101Z,5828.2
2023-09-13T06:55:03.137Z,5820.3
2023-09-13T07:00:01.539Z,5821.3
2023-09-13T07:10:00.640Z,5853.4
2023-09-13T07:15:00.642Z,5844.4
2023-09-13T07:20:00.695Z,5851.9
2023-09-13T07:25:00.533Z,5834.4
2023-09-13T07:30:00.740Z,5833.7
2023-09-13T07:35:00.653Z,5819.4
2023-09-13T07:40:00.655Z,5818.7
2023-09-13T07:45:00.574Z,5829.4
2023-09-13T07:50:01.438Z,5823.2
2023-09-13T07:55:00.589Z,5817.3
2023-09-13T08:00:00.851Z,5810.4
2023-09-13T08:05:00.655Z,5823.1
2023-09-13T08:10:00.880Z,5833.8
2023-09-13T08:15:00.834Z,5841.1
2023-09-13T08:20:01.046Z,5868.1
2023-09-13T08:25:00.788Z,5874.9
2023-09-13T08:30:00.781Z,5887.1
2023-09-13T08:35:00.608Z,5917.6
2023-09-13T08:40:00.873Z,5927.8
2023-09-13T08:45:00.702Z,5928.8
2023-09-13T08:50:02.458Z,5944.3
2023-09-13T08:55:01.513Z,5937.5
2023-09-13T09:00:00.667Z,5956.0
2023-09-13T09:05:02.743Z,5966.4
2023-09-13T09:10:01.559Z,5933.6
2023-09-13T09:15:01.554Z,5932.2
2023-09-13T09:20:00.925Z,5937.4
2023-09-13T09:25:01.532Z,5942.2
2023-09-13T09:30:02.204Z,5969.9
2023-09-13T09:35:00.694Z,5994.9
2023-09-13T09:40:01.542Z,6001.0
2023-09-13T09:45:00.592Z,6001.7
2023-09-13T09:50:04.610Z,6013.7
2023-09-13T09:55:00.658Z,6043.2
2023-09-13T10:00:00.824Z,6058.6
2023-09-13T10:05:00.663Z,6053.0
2023-09-13T10:10:00.712Z,6064.2
2023-09-13T10:15:03.737Z,6055.4
2023-09-13T10:20:01.638Z,6023.6
2023-09-13T10:25:02.766Z,6008.0
2023-09-13T10:30:01.848Z,6048.4
2023-09-13T10:35:01.477Z,6038.3
2023-09-13T10:45:02.066Z,6087.4
2023-09-13T10:50:02.127Z,6065.7
2023-09-13T11:00:03.167Z,6090.7
2023-09-13T11:05:00.983Z,6086.3
2023-09-13T11:10:03.820Z,6101.3
2023-09-13T11:15:12.344Z,6062.1
2023-09-13T11:20:20.231Z,6057.3
2023-09-13T11:25:15.330Z,6063.2
2023-09-13T11:30:00.719Z,6035.3
2023-09-13T11:35:01.297Z,5994.1
2023-09-13T11:40:12.152Z,5985.6
2023-09-13T11:45:03.885Z,5972.9
2023-09-13T11:50:11.938Z,5945.0
2023-09-13T11:55:06.794Z,5942.8
2023-09-13T12:00:01.241Z,5936.1
2023-09-13T12:05:11.010Z,5944.0
2023-09-13T12:10:03.816Z,5927.5
2023-09-13T12:15:02.732Z,5899.2
2023-09-13T12:20:00.582Z,5875.7
2023-09-13T12:25:00.676Z,5848.7
2023-09-13T12:30:05.092Z,5857.6
2023-09-13T12:35:02.051Z,5859.3
2023-09-13T12:40:11.167Z,5870.3
2023-09-13T12:45:03.891Z,5900.0
2023-09-13T12:50:01.964Z,5899.0
2023-09-13T12:55:02.474Z,5895.5
2023-09-13T13:00:00.829Z,5891.5
2023-09-13T13:05:00.814Z,5865.1
2023-09-13T13:10:04.378Z,5844.6
2023-09-13T13:15:00.665Z,5838.5
2023-09-13T13:20:21.413Z,5829.3
2023-09-13T13:25:00.629Z,5792.5
2023-09-13T13:30:00.603Z,5780.9
2023-09-13T13:35:00.772Z,5802.0
2023-09-13T13:40:00.575Z,5815.7
2023-09-13T13:45:00.635Z,5812.7
2023-09-13T13:50:00.792Z,5831.0
2023-09-13T13:55:00.617Z,5803.2
2023-09-13T14:00:00.603Z,5795.8
2023-09-13T14:05:00.639Z,5805.3
2023-09-13T14:10:01.091Z,5800.8
2023-09-13T14:15:00.820Z,5802.3
2023-09-13T14:20:00.609Z,5786.4
2023-09-13T14:25:00.696Z,5784.7
2023-09-13T14:30:00.609Z,5765.7
2023-09-13T14:35:00.765Z,5769.0
2023-09-13T14:40:00.569Z,5758.5
2023-09-13T14:45:01.031Z,5758.9
2023-09-13T14:50:00.793Z,5749.2
2023-09-13T14:55:00.690Z,5037.8
2023-09-13T15:00:01.689Z,5667.8
2023-09-13T15:05:01.247Z,5752.7
2023-09-13T15:10:00.824Z,5769.5
2023-09-13T15:15:00.805Z,5755.1
2023-09-13T15:20:00.640Z,5755.2
2023-09-13T15:25:00.861Z,5774.9
2023-09-13T15:30:00.614Z,5782.1
2023-09-13T15:35:00.662Z,5762.8
2023-09-13T15:40:06.762Z,5769.4
2023-09-13T15:45:00.664Z,5776.2
2023-09-13T15:50:00.613Z,5798.0
2023-09-13T15:55:00.928Z,5800.9
2023-09-13T16:00:00.574Z,5791.3
2023-09-13T16:05:00.724Z,5803.5
2023-09-13T16:10:01.732Z,5803.0
2023-09-13T16:15:01.774Z,5783.7
2023-09-13T16:20:01.043Z,5788.6
2023-09-13T16:25:00.668Z,5787.6
2023-09-13T16:30:04.110Z,5796.1
2023-09-13T16:40:00.665Z,5802.2
2023-09-13T16:45:00.598Z,5781.1
2023-09-13T16:50:00.853Z,5769.7
2023-09-13T16:55:00.699Z,5765.5
2023-09-13T17:00:01.030Z,5749.7
2023-09-13T17:05:00.567Z,5732.5
2023-09-13T17:10:00.738Z,5729.3
2023-09-13T17:15:00.571Z,5751.2
2023-09-13T17:20:00.757Z,5801.8
2023-09-13T17:25:00.572Z,5810.6
2023-09-13T17:30:00.637Z,5811.1
2023-09-13T17:35:01.324Z,5817.5
2023-09-13T17:40:00.664Z,5823.4
2023-09-13T17:45:00.642Z,5833.6
2023-09-13T17:50:00.868Z,5842.0
2023-09-13T17:55:00.663Z,5845.9
2023-09-13T18:00:00.679Z,5836.7
2023-09-13T18:05:00.574Z,5846.5
2023-09-13T18:10:00.902Z,5844.9
2023-09-13T18:15:00.869Z,5855.1
2023-09-13T18:20:00.868Z,5859.6
2023-09-13T18:25:01.185Z,5877.7
2023-09-13T18:30:01.300Z,5886.8
2023-09-13T18:35:00.591Z,5876.4
2023-09-13T18:40:00.720Z,5865.4
2023-09-13T18:45:00.921Z,5875.2
2023-09-13T18:50:00.619Z,5875.0
2023-09-13T18:55:00.688Z,5875.0
2023-09-13T19:00:01.141Z,5858.3
2023-09-13T19:05:00.588Z,5830.6
2023-09-13T19:10:00.804Z,5829.8
2023-09-13T19:15:00.576Z,5819.6
2023-09-13T19:20:00.710Z,5814.9
2023-09-13T19:25:01.025Z,5830.5
2023-09-13T19:30:00.968Z,5830.3
2023-09-13T19:35:00.893Z,5828.9
2023-09-13T19:40:00.781Z,5854.4
2023-09-13T19:45:00.718Z,5863.4
2023-09-13T19:50:00.644Z,5870.3
2023-09-13T19:55:00.809Z,5854.9
2023-09-13T20:00:00.633Z,5854.8
2023-09-13T20:05:00.600Z,5840.7
2023-09-13T20:10:01.244Z,5827.2
2023-09-13T20:15:00.604Z,5816.1
2023-09-13T20:20:00.888Z,5830.4
2023-09-13T20:25:00.857Z,5838.7
2023-09-13T20:30:00.917Z,5815.4
2023-09-13T20:35:01.482Z,5806.3
2023-09-13T20:40:01.629Z,5796.8
2023-09-13T20:45:00.684Z,5793.0
2023-09-13T20:50:00.628Z,5801.9
2023-09-13T20:55:00.596Z,5801.3
2023-09-13T21:00:00.687Z,5795.7
2023-09-13T21:05:00.616Z,5800.8
2023-09-13T21:10:00.960Z,5797.1
2023-09-13T21:15:00.605Z,5796.3
2023-09-13T21:20:00.679Z,5792.1
2023-09-13T21:25:00.611Z,5789.1
2023-09-13T21:30:00.893Z,5786.5
2023-09-13T21:35:03.072Z,5794.4
2023-09-13T21:40:01.135Z,5789.4
2023-09-13T21:45:00.584Z,5777.5
2023-09-13T21:50:00.868Z,5769.2
2023-09-13T21:55:01.039Z,5769.9
2023-09-13T22:00:00.780Z,5796.1
2023-09-13T22:05:03.262Z,5786.5
2023-09-13T22:10:00.693Z,5775.3
2023-09-13T22:15:00.640Z,5769.6
2023-09-13T22:20:01.032Z,5766.0
2023-09-13T22:25:00.712Z,5767.0
2023-09-13T22:30:00.904Z,5752.9
2023-09-13T22:35:01.130Z,5762.4
2023-09-13T22:40:01.719Z,5752.0
2023-09-13T22:45:00.923Z,5759.9
2023-09-13T22:50:00.976Z,5757.4
2023-09-13T22:55:00.643Z,5771.0
2023-09-13T23:00:01.053Z,5767.9
2023-09-13T23:05:00.976Z,5761.4
2023-09-13T23:10:01.107Z,5762.3
2023-09-13T23:15:00.995Z,5779.1
2023-09-13T23:20:00.743Z,5787.2
2023-09-13T23:25:00.631Z,5784.8
2023-09-13T23:30:00.705Z,5751.3
2023-09-13T23:35:00.620Z,5769.3
2023-09-13T23:40:00.703Z,5767.3
2023-09-13T23:45:00.591Z,5763.9
2023-09-13T23:50:00.912Z,5770.1
2023-09-13T23:55:00.631Z,5765.8
